Time;durP1;ratioP1;P1;durP2;ratioP2;P2;SDS_P1;SDS_P2;PMS_P1;PMS_P2;Temp;Humidity;BMP_temperature;BMP_pressure;BME280_temperature;BME280_humidity;BME280_pressure;Samples;Min_cycle;Max_cycle;Signal;HPM_P1;HPM_P2
2022/03/07 00:01:45;;;;;;;4.13;3.83;;;;;;;;;;4977645;28;20231;-50
2022/03/07 00:04:14;;;;;;;4.22;3.92;;;;;;;;;;4977006;28;20299;-50
2022/03/07 00:06:41;;;;;;;4.10;3.80;;;;;;;;;;4977694;28;20650;-50
2022/03/07 00:09:10;;;;;;;4.30;3.90;;;;;;;;;;4977133;28;20235;-50
2022/03/07 00:11:37;;;;;;;4.00;3.70;;;;;;;;;;4976808;28;20324;-50
2022/03/07 00:14:05;;;;;;;4.13;3.70;;;;;;;;;;4976970;28;20267;-50
2022/03/07 00:16:32;;;;;;;4.00;3.70;;;;;;;;;;4980063;28;20294;-50
2022/03/07 00:18:59;;;;;;;4.35;3.97;;;;;;;;;;4980557;28;20251;-50
2022/03/07 00:21:26;;;;;;;3.80;3.40;;;;;;;;;;4979956;28;20286;-50
2022/03/07 00:23:54;;;;;;;3.88;3.58;;;;;;;;;;4981139;28;20275;-50
2022/03/07 00:26:22;;;;;;;3.65;3.45;;;;;;;;;;4980611;28;20615;-50
2022/03/07 00:28:50;;;;;;;3.97;3.67;;;;;;;;;;4980786;28;20232;-50
2022/03/07 00:31:17;;;;;;;4.00;3.60;;;;;;;;;;4979685;28;20294;-50
2022/03/07 00:33:45;;;;;;;4.03;3.72;;;;;;;;;;4979953;28;20231;-50
2022/03/07 00:36:12;;;;;;;4.95;3.60;;;;;;;;;;4980099;28;20302;-50
2022/03/07 00:38:39;;;;;;;3.85;3.55;;;;;;;;;;4979520;28;20315;-50
2022/03/07 00:41:06;;;;;;;3.67;3.38;;;;;;;;;;4980389;28;20307;-50
2022/03/07 00:43:35;;;;;;;3.70;3.40;;;;;;;;;;4979640;28;20583;-50
2022/03/07 00:46:02;;;;;;;3.70;3.40;;;;;;;;;;4979961;28;20247;-50
2022/03/07 00:48:30;;;;;;;3.53;3.33;;;;;;;;;;4980618;28;20581;-50
2022/03/07 00:50:57;;;;;;;3.78;3.47;;;;;;;;;;4980287;28;20236;-50
2022/03/07 00:53:25;;;;;;;3.50;3.30;;;;;;;;;;4980421;28;20231;-50
2022/03/07 00:55:53;;;;;;;3.85;3.55;;;;;;;;;;4980278;28;20243;-50
2022/03/07 00:58:20;;;;;;;3.30;3.10;;;;;;;;;;4980258;28;20295;-50
2022/03/07 01:00:49;;;;;;;3.13;2.90;;;;;;;;;;4980832;28;20207;-50
2022/03/07 01:03:17;;;;;;;3.20;3.00;;;;;;;;;;4980158;28;20618;-50
2022/03/07 01:05:44;;;;;;;3.60;3.40;;;;;;;;;;4980765;28;20266;-50
2022/03/07 01:08:12;;;;;;;3.65;3.42;;;;;;;;;;4980839;28;20549;-50
2022/03/07 01:10:39;;;;;;;3.33;3.10;;;;;;;;;;4980707;28;20323;-50
2022/03/07 01:13:08;;;;;;;3.53;3.22;;;;;;;;;;4980579;28;20343;-50
2022/03/07 01:15:35;;;;;;;3.30;3.03;;;;;;;;;;4980160;28;20215;-50
2022/03/07 01:18:04;;;;;;;3.30;3.10;;;;;;;;;;4981071;28;20267;-50
2022/03/07 01:20:32;;;;;;;3.50;3.20;;;;;;;;;;4980736;28;20208;-50
2022/03/07 01:22:59;;;;;;;3.33;3.13;;;;;;;;;;4980698;28;20216;-50
2022/03/07 01:25:26;;;;;;;3.38;3.17;;;;;;;;;;4980365;28;20294;-50
2022/03/07 01:27:55;;;;;;;3.15;2.95;;;;;;;;;;4979665;28;20551;-50
2022/03/07 01:30:22;;;;;;;3.30;3.10;;;;;;;;;;4980385;28;20474;-50
2022/03/07 01:32:52;;;;;;;3.88;3.50;;;;;;;;;;4980342;28;20218;-50
2022/03/07 01:35:21;;;;;;;3.35;3.10;;;;;;;;;;4980025;28;20203;-50
2022/03/07 01:37:49;;;;;;;3.20;3.00;;;;;;;;;;4980559;28;20276;-50
2022/03/07 01:40:16;;;;;;;3.40;3.10;;;;;;;;;;4980615;28;20212;-50
2022/03/07 01:42:44;;;;;;;3.08;2.88;;;;;;;;;;4980181;28;20665;-50
2022/03/07 01:45:11;;;;;;;3.03;2.83;;;;;;;;;;4979745;28;20243;-50
2022/03/07 01:47:39;;;;;;;3.38;3.17;;;;;;;;;;4980602;28;20491;-50
2022/03/07 01:50:07;;;;;;;3.20;3.00;;;;;;;;;;4980020;28;20208;-50
2022/03/07 01:52:38;;;;;;;3.25;3.05;;;;;;;;;;4980101;28;20207;-50
2022/03/07 01:55:07;;;;;;;3.38;3.10;;;;;;;;;;4980281;28;20271;-50
2022/03/07 01:57:34;;;;;;;3.15;2.95;;;;;;;;;;4980103;28;20563;-50
2022/03/07 02:00:02;;;;;;;3.45;3.25;;;;;;;;;;4979957;28;20542;-50
2022/03/07 02:02:29;;;;;;;3.00;2.80;;;;;;;;;;4979905;28;20307;-50
2022/03/07 02:04:56;;;;;;;3.10;2.90;;;;;;;;;;4979640;28;20294;-50
2022/03/07 02:07:24;;;;;;;3.15;2.90;;;;;;;;;;4979976;28;20208;-50
2022/03/07 02:09:54;;;;;;;3.10;2.90;;;;;;;;;;4979663;28;20274;-50
2022/03/07 02:12:21;;;;;;;3.22;3.03;;;;;;;;;;4979206;28;20696;-50
2022/03/07 02:14:48;;;;;;;3.42;3.22;;;;;;;;;;4979814;28;20278;-50
2022/03/07 02:17:15;;;;;;;3.20;3.00;;;;;;;;;;4979987;28;20214;-50
2022/03/07 02:19:43;;;;;;;3.45;3.05;;;;;;;;;;4979619;28;20631;-50
2022/03/07 02:22:15;;;;;;;3.28;3.08;;;;;;;;;;4979129;28;20227;-50
2022/03/07 02:24:42;;;;;;;2.92;2.72;;;;;;;;;;4979226;28;20693;-50
2022/03/07 02:27:10;;;;;;;3.33;3.13;;;;;;;;;;4978945;28;20274;-50
2022/03/07 02:29:38;;;;;;;3.33;3.13;;;;;;;;;;4979255;28;20310;-50
2022/03/07 02:32:05;;;;;;;3.30;3.10;;;;;;;;;;4979102;28;20208;-50
2022/03/07 02:34:33;;;;;;;3.35;3.10;;;;;;;;;;4979341;28;20611;-50
2022/03/07 02:37:01;;;;;;;3.28;3.08;;;;;;;;;;4979143;28;20273;-50
2022/03/07 02:39:29;;;;;;;3.08;2.88;;;;;;;;;;4979150;28;20343;-50
2022/03/07 02:41:56;;;;;;;3.30;3.00;;;;;;;;;;4979151;28;20258;-50
2022/03/07 02:44:24;;;;;;;3.25;3.05;;;;;;;;;;4978627;28;20231;-50
2022/03/07 02:46:52;;;;;;;3.13;2.92;;;;;;;;;;4979192;28;20279;-50
2022/03/07 02:49:19;;;;;;;3.35;3.15;;;;;;;;;;4979294;28;20220;-50
2022/03/07 02:51:46;;;;;;;3.38;3.17;;;;;;;;;;4979283;28;20234;-50
2022/03/07 02:54:14;;;;;;;3.30;3.10;;;;;;;;;;4978878;28;20204;-50
2022/03/07 02:56:44;;;;;;;3.50;3.30;;;;;;;;;;4979124;28;20211;-50
2022/03/07 02:59:12;;;;;;;3.17;2.97;;;;;;;;;;4978951;28;20218;-49
2022/03/07 03:01:39;;;;;;;3.25;3.05;;;;;;;;;;4978837;28;20635;-49
2022/03/07 03:04:06;;;;;;;3.35;3.05;;;;;;;;;;4978941;28;20493;-50
2022/03/07 03:06:34;;;;;;;2.88;2.67;;;;;;;;;;4978274;28;20208;-50
2022/03/07 03:09:01;;;;;;;3.55;3.25;;;;;;;;;;4977763;28;20211;-49
2022/03/07 03:11:28;;;;;;;3.25;3.05;;;;;;;;;;4978517;28;20216;-49
2022/03/07 03:13:57;;;;;;;3.35;3.15;;;;;;;;;;4978557;28;20208;-50
2022/03/07 03:16:25;;;;;;;3.70;3.50;;;;;;;;;;4978480;28;20259;-50
2022/03/07 03:18:52;;;;;;;3.38;3.17;;;;;;;;;;4978821;28;20222;-50
2022/03/07 03:21:20;;;;;;;3.33;3.13;;;;;;;;;;4978334;28;20212;-49
2022/03/07 03:23:48;;;;;;;3.50;3.20;;;;;;;;;;4978466;28;20220;-50
2022/03/07 03:26:15;;;;;;;3.53;3.28;;;;;;;;;;4978283;28;20207;-50
2022/03/07 03:28:42;;;;;;;3.33;3.03;;;;;;;;;;4978349;28;20646;-50
2022/03/07 03:31:12;;;;;;;3.28;3.08;;;;;;;;;;4978127;28;20471;-50
2022/03/07 03:33:39;;;;;;;3.42;3.22;;;;;;;;;;4978275;28;20249;-49
2022/03/07 03:36:07;;;;;;;3.08;2.88;;;;;;;;;;4978421;28;20212;-50
2022/03/07 03:38:34;;;;;;;3.13;2.92;;;;;;;;;;4977887;28;20274;-50
2022/03/07 03:41:01;;;;;;;3.30;3.10;;;;;;;;;;4978221;28;20212;-50
2022/03/07 03:43:29;;;;;;;3.20;3.00;;;;;;;;;;4978093;28;20556;-50
2022/03/07 03:45:56;;;;;;;3.25;3.05;;;;;;;;;;4977902;28;20302;-50
2022/03/07 03:48:25;;;;;;;3.20;3.00;;;;;;;;;;4977764;28;20298;-50
2022/03/07 03:50:53;;;;;;;3.40;3.20;;;;;;;;;;4981685;28;20278;-50
2022/03/07 03:53:20;;;;;;;3.15;2.95;;;;;;;;;;4984424;28;20258;-50
2022/03/07 03:55:47;;;;;;;3.40;3.20;;;;;;;;;;4984419;28;20273;-50
2022/03/07 03:58:15;;;;;;;3.22;3.03;;;;;;;;;;4984217;28;20273;-50
2022/03/07 04:00:42;;;;;;;3.15;2.95;;;;;;;;;;4984286;28;20538;-50
2022/03/07 04:03:09;;;;;;;3.20;3.00;;;;;;;;;;4984590;28;20233;-50
2022/03/07 04:05:38;;;;;;;3.20;3.00;;;;;;;;;;4984322;28;20634;-50
2022/03/07 04:08:05;;;;;;;3.47;3.28;;;;;;;;;;4984160;28;20219;-50
2022/03/07 04:10:34;;;;;;;2.90;2.70;;;;;;;;;;4983818;28;20208;-49
2022/03/07 04:13:01;;;;;;;3.45;3.25;;;;;;;;;;4984086;28;20255;-49
2022/03/07 04:15:28;;;;;;;3.50;3.30;;;;;;;;;;4984109;28;20361;-50
2022/03/07 04:17:55;;;;;;;2.92;2.72;;;;;;;;;;4984742;28;20550;-50
2022/03/07 04:20:23;;;;;;;2.95;2.75;;;;;;;;;;4983939;28;20652;-50
2022/03/07 04:22:52;;;;;;;3.50;3.30;;;;;;;;;;4984218;28;20271;-50
2022/03/07 04:25:20;;;;;;;3.00;2.80;;;;;;;;;;4984166;28;20227;-49
2022/03/07 04:27:47;;;;;;;3.25;3.05;;;;;;;;;;4983759;28;20234;-49
2022/03/07 04:30:15;;;;;;;3.25;3.05;;;;;;;;;;4983887;28;20212;-50
2022/03/07 04:32:42;;;;;;;3.10;2.90;;;;;;;;;;4984207;28;20207;-50
2022/03/07 04:35:11;;;;;;;2.95;2.75;;;;;;;;;;4984017;28;20211;-50
2022/03/07 04:37:40;;;;;;;3.40;3.20;;;;;;;;;;4983317;28;20215;-50
2022/03/07 04:40:10;;;;;;;3.38;3.17;;;;;;;;;;4983616;28;20215;-49
2022/03/07 04:42:37;;;;;;;3.33;3.08;;;;;;;;;;4983133;28;20478;-50
2022/03/07 04:45:04;;;;;;;3.30;3.10;;;;;;;;;;4982971;28;20243;-49
2022/03/07 04:47:32;;;;;;;3.08;2.88;;;;;;;;;;4982965;28;20590;-50
2022/03/07 04:49:59;;;;;;;3.20;3.00;;;;;;;;;;4982711;28;20258;-49
2022/03/07 04:52:26;;;;;;;3.78;3.30;;;;;;;;;;4982379;28;20290;-50
2022/03/07 04:54:54;;;;;;;3.55;3.28;;;;;;;;;;4982506;28;20211;-49
2022/03/07 04:57:22;;;;;;;3.10;2.90;;;;;;;;;;4982569;28;20219;-50
2022/03/07 04:59:50;;;;;;;3.53;3.33;;;;;;;;;;4983167;28;20207;-50
2022/03/07 05:02:17;;;;;;;3.50;3.20;;;;;;;;;;4981253;28;20271;-50
2022/03/07 05:04:44;;;;;;;3.20;3.00;;;;;;;;;;4979308;28;20247;-49
2022/03/07 05:07:12;;;;;;;3.08;2.88;;;;;;;;;;4979285;28;20807;-50
2022/03/07 05:09:39;;;;;;;3.17;2.97;;;;;;;;;;4979439;28;20239;-49
2022/03/07 05:12:07;;;;;;;3.53;3.33;;;;;;;;;;4979274;28;20208;-50
2022/03/07 05:14:35;;;;;;;3.58;3.38;;;;;;;;;;4979028;28;20559;-50
2022/03/07 05:17:03;;;;;;;3.10;2.90;;;;;;;;;;4979945;28;20211;-49
2022/03/07 05:19:30;;;;;;;3.67;3.47;;;;;;;;;;4979123;28;20207;-50
2022/03/07 05:21:57;;;;;;;3.28;3.08;;;;;;;;;;4978860;28;20216;-50
2022/03/07 05:24:25;;;;;;;3.40;3.20;;;;;;;;;;4978738;28;20395;-50
2022/03/07 05:26:53;;;;;;;3.30;3.03;;;;;;;;;;4978017;28;20212;-50
2022/03/07 05:29:20;;;;;;;3.70;3.50;;;;;;;;;;4977671;28;20218;-49
2022/03/07 05:31:49;;;;;;;3.47;3.17;;;;;;;;;;4978275;28;20215;-50
2022/03/07 05:34:16;;;;;;;3.42;3.22;;;;;;;;;;4978267;28;20208;-50
2022/03/07 05:36:43;;;;;;;3.28;3.08;;;;;;;;;;4977753;28;20211;-49
2022/03/07 05:39:12;;;;;;;3.10;2.90;;;;;;;;;;4977942;28;20208;-50
2022/03/07 05:41:40;;;;;;;3.30;3.10;;;;;;;;;;4978618;28;20293;-50
2022/03/07 05:44:08;;;;;;;3.47;3.28;;;;;;;;;;4978014;28;20218;-49
2022/03/07 05:46:35;;;;;;;3.05;2.85;;;;;;;;;;4976271;28;20235;-50
2022/03/07 05:49:04;;;;;;;3.22;3.03;;;;;;;;;;4975857;28;20408;-49
2022/03/07 05:51:32;;;;;;;3.85;3.55;;;;;;;;;;4976985;28;20554;-50
2022/03/07 05:53:59;;;;;;;3.33;3.13;;;;;;;;;;4976693;28;20218;-49
2022/03/07 05:56:28;;;;;;;3.00;2.80;;;;;;;;;;4975474;28;20196;-49
2022/03/07 05:58:55;;;;;;;3.10;2.90;;;;;;;;;;4977143;28;20258;-49
2022/03/07 06:01:23;;;;;;;3.10;2.90;;;;;;;;;;4978057;28;20212;-49
2022/03/07 06:03:50;;;;;;;3.58;3.30;;;;;;;;;;4975509;28;20204;-49
2022/03/07 06:06:19;;;;;;;3.30;3.10;;;;;;;;;;4974526;28;20231;-49
2022/03/07 06:08:46;;;;;;;2.95;2.75;;;;;;;;;;4976633;28;20204;-50
2022/03/07 06:11:13;;;;;;;3.67;3.38;;;;;;;;;;4975481;28;20258;-49
2022/03/07 06:13:41;;;;;;;3.22;3.03;;;;;;;;;;4975535;28;20204;-49
2022/03/07 06:16:08;;;;;;;3.47;3.17;;;;;;;;;;4974927;28;20216;-50
2022/03/07 06:18:35;;;;;;;3.10;2.90;;;;;;;;;;4974638;28;20200;-49
2022/03/07 06:21:03;;;;;;;3.42;3.22;;;;;;;;;;4975247;28;20215;-49
2022/03/07 06:23:31;;;;;;;3.10;2.90;;;;;;;;;;4974399;28;20258;-49
2022/03/07 06:25:59;;;;;;;3.53;3.33;;;;;;;;;;4974580;28;20310;-50
2022/03/07 06:28:26;;;;;;;3.40;3.20;;;;;;;;;;4975374;28;20208;-49
2022/03/07 06:30:53;;;;;;;3.30;3.10;;;;;;;;;;4975198;28;20215;-50
2022/03/07 06:33:21;;;;;;;3.10;2.90;;;;;;;;;;4975242;28;20211;-49
2022/03/07 06:35:48;;;;;;;3.10;2.90;;;;;;;;;;4974757;28;20204;-50
2022/03/07 06:38:15;;;;;;;2.90;2.70;;;;;;;;;;4974305;28;20622;-49
2022/03/07 06:40:44;;;;;;;3.00;2.80;;;;;;;;;;4973738;28;20239;-49
2022/03/07 06:43:11;;;;;;;3.05;2.85;;;;;;;;;;4972195;28;20235;-49
2022/03/07 06:45:38;;;;;;;3.30;3.10;;;;;;;;;;4974350;28;20247;-49
2022/03/07 06:48:06;;;;;;;3.20;3.00;;;;;;;;;;4973722;28;20603;-49
2022/03/07 06:50:34;;;;;;;2.97;2.78;;;;;;;;;;4973018;28;20603;-49
2022/03/07 06:53:01;;;;;;;3.22;3.03;;;;;;;;;;4972720;28;20697;-49
2022/03/07 06:55:28;;;;;;;3.00;2.80;;;;;;;;;;4973296;28;20232;-49
2022/03/07 06:57:57;;;;;;;3.13;2.92;;;;;;;;;;4973739;28;20492;-49
2022/03/07 07:00:25;;;;;;;3.30;3.10;;;;;;;;;;4971908;28;20409;-49
2022/03/07 07:02:52;;;;;;;2.97;2.78;;;;;;;;;;4974009;28;20223;-49
2022/03/07 07:05:20;;;;;;;3.28;2.80;;;;;;;;;;4974049;28;20236;-49
2022/03/07 07:07:47;;;;;;;3.65;2.80;;;;;;;;;;4972586;28;20274;-49
2022/03/07 07:10:18;;;;;;;4.07;3.00;;;;;;;;;;4973973;28;20212;-49
2022/03/07 07:12:46;;;;;;;3.00;2.80;;;;;;;;;;4974692;28;20216;-49
2022/03/07 07:15:14;;;;;;;2.88;2.63;;;;;;;;;;4975175;28;20207;-49
2022/03/07 07:17:42;;;;;;;2.80;2.60;;;;;;;;;;4974527;28;20582;-49
2022/03/07 07:20:12;;;;;;;2.90;2.70;;;;;;;;;;4974528;28;20239;-49
2022/03/07 07:22:40;;;;;;;2.85;2.50;;;;;;;;;;4973481;28;20208;-49
2022/03/07 07:25:08;;;;;;;3.03;2.70;;;;;;;;;;4973525;28;20274;-49
2022/03/07 07:27:36;;;;;;;2.80;2.60;;;;;;;;;;4974051;28;20550;-49
2022/03/07 07:30:06;;;;;;;4.38;2.95;;;;;;;;;;4974633;28;20490;-49
2022/03/07 07:32:35;;;;;;;2.60;2.40;;;;;;;;;;4974645;28;20418;-49
2022/03/07 07:35:02;;;;;;;2.97;2.78;;;;;;;;;;4974901;28;20285;-49
2022/03/07 07:37:29;;;;;;;3.45;2.60;;;;;;;;;;4972949;28;20212;-49
2022/03/07 07:39:57;;;;;;;3.03;2.80;;;;;;;;;;4974257;28;20602;-49
2022/03/07 07:42:24;;;;;;;2.72;2.53;;;;;;;;;;4974855;28;20208;-50
2022/03/07 07:44:51;;;;;;;3.35;3.05;;;;;;;;;;4973417;28;20290;-49
2022/03/07 07:47:18;;;;;;;2.53;2.33;;;;;;;;;;4973937;28;20299;-49
2022/03/07 07:49:47;;;;;;;2.90;2.60;;;;;;;;;;4974835;28;20215;-49
2022/03/07 07:52:15;;;;;;;3.00;2.80;;;;;;;;;;4972948;28;20215;-49
2022/03/07 07:54:42;;;;;;;10.32;8.93;;;;;;;;;;4974236;28;20258;-49
2022/03/07 07:57:12;;;;;;;8.02;6.22;;;;;;;;;;4974699;28;20269;-49
2022/03/07 07:59:39;;;;;;;6.97;6.13;;;;;;;;;;4973594;28;20232;-50
2022/03/07 08:02:07;;;;;;;6.75;6.15;;;;;;;;;;4972933;28;20436;-50
2022/03/07 08:04:35;;;;;;;6.80;5.82;;;;;;;;;;4974938;28;20235;-49
2022/03/07 08:07:05;;;;;;;5.75;5.25;;;;;;;;;;4975438;28;20606;-50
2022/03/07 08:09:34;;;;;;;5.72;5.22;;;;;;;;;;4973602;28;20598;-49
2022/03/07 08:12:02;;;;;;;5.45;4.95;;;;;;;;;;4974960;28;20262;-50
2022/03/07 08:14:30;;;;;;;6.03;5.47;;;;;;;;;;4973356;28;20941;-50
2022/03/07 08:16:57;;;;;;;5.43;4.93;;;;;;;;;;4973808;28;20272;-50
2022/03/07 08:19:24;;;;;;;7.20;5.38;;;;;;;;;;4973474;28;20262;-50
2022/03/07 08:21:52;;;;;;;5.40;4.90;;;;;;;;;;4973235;28;20211;-49
2022/03/07 08:24:21;;;;;;;5.38;4.80;;;;;;;;;;4973331;28;20497;-50
2022/03/07 08:26:48;;;;;;;4.93;4.53;;;;;;;;;;4973687;28;20539;-49
2022/03/07 08:29:15;;;;;;;4.80;4.40;;;;;;;;;;4973752;28;20208;-50
2022/03/07 08:31:43;;;;;;;5.45;4.65;;;;;;;;;;4975151;28;20207;-50
2022/03/07 08:34:10;;;;;;;4.95;4.50;;;;;;;;;;4973374;28;20204;-49
2022/03/07 08:36:38;;;;;;;5.07;4.40;;;;;;;;;;4975046;28;20262;-49
2022/03/07 08:39:05;;;;;;;4.60;4.20;;;;;;;;;;4977029;28;20306;-49
2022/03/07 08:41:35;;;;;;;5.70;4.35;;;;;;;;;;4977587;28;20693;-49
2022/03/07 08:44:02;;;;;;;6.20;5.55;;;;;;;;;;4976234;28;20278;-50
2022/03/07 08:46:29;;;;;;;14.63;9.80;;;;;;;;;;4977193;28;20498;-50
2022/03/07 08:48:57;;;;;;;10.10;8.07;;;;;;;;;;4977159;28;20216;-49
2022/03/07 08:51:24;;;;;;;9.35;7.38;;;;;;;;;;4977139;28;20649;-50
2022/03/07 08:53:51;;;;;;;7.88;6.88;;;;;;;;;;4976862;28;20204;-50
2022/03/07 08:56:19;;;;;;;8.30;6.90;;;;;;;;;;4975632;28;20645;-50
2022/03/07 08:58:47;;;;;;;10.50;6.82;;;;;;;;;;4977461;28;20516;-50
2022/03/07 09:01:16;;;;;;;8.52;6.07;;;;;;;;;;4976353;28;20274;-50
2022/03/07 09:03:43;;;;;;;7.68;6.03;;;;;;;;;;4976975;28;20581;-49
2022/03/07 09:06:10;;;;;;;9.65;6.72;;;;;;;;;;4977062;28;20235;-50
2022/03/07 09:08:38;;;;;;;7.30;6.10;;;;;;;;;;4976514;28;20216;-50
2022/03/07 09:11:05;;;;;;;7.18;6.05;;;;;;;;;;4975462;28;20281;-50
2022/03/07 09:13:32;;;;;;;7.93;5.72;;;;;;;;;;4976875;28;20208;-50
2022/03/07 09:16:01;;;;;;;8.85;6.70;;;;;;;;;;4976367;28;20263;-50
2022/03/07 09:18:28;;;;;;;8.15;6.47;;;;;;;;;;4976483;28;20203;-50
2022/03/07 09:20:56;;;;;;;7.45;6.20;;;;;;;;;;4976374;28;20658;-50
2022/03/07 09:23:24;;;;;;;6.50;5.63;;;;;;;;;;4976195;28;20227;-50
2022/03/07 09:25:51;;;;;;;7.70;5.63;;;;;;;;;;4975744;28;20321;-49
2022/03/07 09:28:19;;;;;;;8.45;5.95;;;;;;;;;;4977920;28;20463;-50
2022/03/07 09:30:46;;;;;;;7.43;5.90;;;;;;;;;;4977631;28;20208;-50
2022/03/07 09:33:14;;;;;;;6.47;5.40;;;;;;;;;;4977775;28;20215;-50
2022/03/07 09:35:42;;;;;;;7.03;5.40;;;;;;;;;;4975243;28;20262;-50
2022/03/07 09:38:09;;;;;;;7.78;5.38;;;;;;;;;;4975223;28;20208;-49
2022/03/07 09:40:37;;;;;;;5.68;5.07;;;;;;;;;;4975346;28;20199;-50
2022/03/07 09:43:04;;;;;;;5.88;5.22;;;;;;;;;;4976899;28;20216;-50
2022/03/07 09:45:31;;;;;;;5.68;4.80;;;;;;;;;;4976472;28;20297;-50
2022/03/07 09:47:59;;;;;;;5.22;4.28;;;;;;;;;;4974085;28;20231;-49
2022/03/07 09:50:28;;;;;;;5.70;4.80;;;;;;;;;;4975530;28;20223;-50
2022/03/07 09:52:55;;;;;;;5.13;4.43;;;;;;;;;;4974774;28;20216;-49
2022/03/07 09:55:23;;;;;;;5.65;4.47;;;;;;;;;;4975702;28;20231;-50
2022/03/07 09:57:50;;;;;;;7.22;5.15;;;;;;;;;;4973563;28;20278;-50
2022/03/07 10:00:18;;;;;;;9.80;7.13;;;;;;;;;;4974926;28;20216;-50
2022/03/07 10:02:53;;;;;;;8.88;6.20;;;;;;;;;;4974638;28;20216;-49
2022/03/07 10:05:20;;;;;;;9.77;6.00;;;;;;;;;;4976178;28;20207;-50
2022/03/07 10:07:49;;;;;;;9.43;6.25;;;;;;;;;;4976230;28;20298;-50
2022/03/07 10:10:16;;;;;;;6.80;5.13;;;;;;;;;;4975858;28;20284;-50
2022/03/07 10:12:47;;;;;;;6.20;5.03;;;;;;;;;;4975460;28;20266;-50
2022/03/07 10:15:15;;;;;;;6.72;5.25;;;;;;;;;;4976043;28;20208;-49
2022/03/07 10:17:47;;;;;;;6.85;4.95;;;;;;;;;;4975040;28;20236;-50
2022/03/07 10:20:19;;;;;;;10.13;8.32;;;;;;;;;;4975811;28;20208;-50
2022/03/07 10:22:47;;;;;;;8.15;7.20;;;;;;;;;;4975530;28;20328;-50
2022/03/07 10:25:15;;;;;;;24.23;21.88;;;;;;;;;;4975817;28;20918;-49
2022/03/07 10:27:44;;;;;;;26.15;23.58;;;;;;;;;;4975110;28;20234;-50
2022/03/07 10:30:12;;;;;;;23.45;21.02;;;;;;;;;;4975159;28;20207;-50
2022/03/07 10:32:40;;;;;;;21.55;19.50;;;;;;;;;;4975407;28;20334;-50
2022/03/07 10:35:08;;;;;;;20.48;18.30;;;;;;;;;;4976097;28;20456;-50
2022/03/07 10:37:36;;;;;;;19.58;17.77;;;;;;;;;;4975264;28;21157;-49
2022/03/07 10:40:04;;;;;;;18.80;17.00;;;;;;;;;;4974733;28;20200;-50
2022/03/07 10:42:36;;;;;;;17.70;16.02;;;;;;;;;;4973606;28;20215;-50
2022/03/07 10:45:05;;;;;;;16.77;15.18;;;;;;;;;;4973399;28;20596;-50
2022/03/07 10:47:32;;;;;;;16.20;14.70;;;;;;;;;;4973402;28;20298;-50
2022/03/07 10:50:00;;;;;;;15.95;14.35;;;;;;;;;;4972422;28;20610;-50
2022/03/07 10:52:36;;;;;;;15.48;14.00;;;;;;;;;;4971531;28;20280;-50
2022/03/07 10:55:04;;;;;;;14.52;13.13;;;;;;;;;;4971023;28;20603;-50
2022/03/07 10:57:35;;;;;;;14.30;12.80;;;;;;;;;;4973221;28;20455;-50
2022/03/07 11:00:07;;;;;;;13.70;12.30;;;;;;;;;;4974396;28;20208;-50
2022/03/07 11:02:39;;;;;;;12.90;11.65;;;;;;;;;;4974343;28;20270;-49
2022/03/07 11:05:07;;;;;;;12.15;10.95;;;;;;;;;;4973560;28;20215;-49
2022/03/07 11:07:35;;;;;;;11.15;10.05;;;;;;;;;;4974537;28;20231;-49
2022/03/07 11:10:02;;;;;;;12.18;10.35;;;;;;;;;;4974272;28;20533;-49
2022/03/07 11:12:29;;;;;;;11.23;10.05;;;;;;;;;;4973561;28;20228;-49
2022/03/07 11:15:00;;;;;;;10.43;9.43;;;;;;;;;;4973392;28;20208;-50
2022/03/07 11:17:28;;;;;;;9.85;8.98;;;;;;;;;;4972664;28;20540;-50
2022/03/07 11:19:55;;;;;;;10.43;9.27;;;;;;;;;;4972650;28;20554;-50
2022/03/07 11:22:23;;;;;;;10.45;8.88;;;;;;;;;;4972606;28;20215;-50
2022/03/07 11:24:50;;;;;;;9.20;8.30;;;;;;;;;;4972368;28;20211;-49
2022/03/07 11:27:18;;;;;;;8.30;7.60;;;;;;;;;;4973491;28;20224;-49
2022/03/07 11:29:45;;;;;;;9.60;8.70;;;;;;;;;;4972970;28;20203;-50
2022/03/07 11:32:15;;;;;;;8.68;7.78;;;;;;;;;;4973826;28;20240;-50
2022/03/07 11:34:52;;;;;;;8.88;8.00;;;;;;;;;;4973209;28;20211;-50
2022/03/07 11:37:20;;;;;;;9.75;8.52;;;;;;;;;;4973561;28;20211;-50
2022/03/07 11:39:47;;;;;;;9.55;8.65;;;;;;;;;;4973654;28;20230;-50
2022/03/07 11:42:16;;;;;;;9.13;8.23;;;;;;;;;;4973171;28;20282;-50
2022/03/07 11:44:44;;;;;;;9.25;8.18;;;;;;;;;;4972557;28;20236;-50
2022/03/07 11:47:12;;;;;;;8.35;6.97;;;;;;;;;;4971793;28;20285;-49
2022/03/07 11:49:41;;;;;;;7.57;6.93;;;;;;;;;;4973075;28;20633;-50
2022/03/07 11:52:09;;;;;;;7.70;6.80;;;;;;;;;;4972722;28;20216;-50
2022/03/07 11:54:50;;;;;;;6.97;6.35;;;;;;;;;;4972098;28;20208;-50
2022/03/07 11:57:18;;;;;;;6.90;6.30;;;;;;;;;;4972474;28;20196;-49
2022/03/07 11:59:45;;;;;;;6.97;6.28;;;;;;;;;;4973701;28;20277;-50
2022/03/07 12:02:12;;;;;;;6.78;6.18;;;;;;;;;;4972918;28;20670;-50
2022/03/07 12:04:42;;;;;;;6.57;5.97;;;;;;;;;;4972738;28;20207;-49
2022/03/07 12:07:09;;;;;;;6.25;5.65;;;;;;;;;;4972065;28;20235;-49
2022/03/07 12:09:37;;;;;;;6.38;5.88;;;;;;;;;;4972283;28;20204;-50
2022/03/07 12:12:05;;;;;;;5.82;5.32;;;;;;;;;;4974428;28;20546;-50
2022/03/07 12:14:33;;;;;;;5.60;5.10;;;;;;;;;;4978170;28;20278;-50
2022/03/07 12:17:01;;;;;;;5.82;5.28;;;;;;;;;;4976563;28;20730;-49
2022/03/07 12:19:29;;;;;;;5.30;4.80;;;;;;;;;;4975842;28;20247;-50
2022/03/07 12:21:58;;;;;;;5.50;5.00;;;;;;;;;;4975984;28;20241;-50
2022/03/07 12:24:25;;;;;;;5.07;4.68;;;;;;;;;;4975796;28;20223;-50
2022/03/07 12:26:53;;;;;;;5.10;4.60;;;;;;;;;;4975398;28;20642;-50
2022/03/07 12:29:22;;;;;;;4.40;4.10;;;;;;;;;;4976881;28;20254;-50
2022/03/07 12:31:50;;;;;;;4.68;4.28;;;;;;;;;;4976033;28;20270;-50
2022/03/07 12:34:20;;;;;;;4.93;4.53;;;;;;;;;;4977857;28;20215;-50
2022/03/07 12:36:57;;;;;;;4.35;3.95;;;;;;;;;;4977444;28;20208;-50
2022/03/07 12:39:25;;;;;;;4.40;4.03;;;;;;;;;;4976628;28;20247;-50
2022/03/07 12:41:52;;;;;;;4.35;3.95;;;;;;;;;;4974235;28;20289;-49
2022/03/07 12:44:19;;;;;;;4.07;3.78;;;;;;;;;;4973884;28;20786;-50
2022/03/07 12:46:47;;;;;;;4.55;3.95;;;;;;;;;;4975660;28;20266;-50
2022/03/07 12:49:18;;;;;;;4.18;3.88;;;;;;;;;;4974716;28;20203;-49
2022/03/07 12:51:45;;;;;;;3.90;3.60;;;;;;;;;;4976186;28;20215;-50
2022/03/07 12:54:14;;;;;;;3.47;3.17;;;;;;;;;;4974667;28;20216;-50
2022/03/07 12:56:42;;;;;;;3.95;3.65;;;;;;;;;;4974913;28;20536;-50
2022/03/07 12:59:10;;;;;;;3.72;3.42;;;;;;;;;;4974972;28;20896;-50
2022/03/07 13:01:39;;;;;;;3.60;3.30;;;;;;;;;;4975332;28;20449;-49
2022/03/07 13:04:16;;;;;;;3.47;3.17;;;;;;;;;;4974457;28;20214;-50
2022/03/07 13:06:47;;;;;;;3.53;3.22;;;;;;;;;;4975361;28;20565;-50
2022/03/07 13:09:16;;;;;;;3.08;2.88;;;;;;;;;;4975658;28;20214;-50
2022/03/07 13:11:47;;;;;;;3.40;3.10;;;;;;;;;;4975317;28;20433;-50
2022/03/07 13:14:20;;;;;;;3.20;2.90;;;;;;;;;;4975488;28;20466;-50
2022/03/07 13:16:48;;;;;;;3.08;2.80;;;;;;;;;;4973859;28;20251;-50
2022/03/07 13:19:15;;;;;;;2.90;2.67;;;;;;;;;;4973798;28;20527;-50
2022/03/07 13:21:44;;;;;;;2.95;2.75;;;;;;;;;;4975555;28;20422;-50
2022/03/07 13:24:12;;;;;;;2.88;2.67;;;;;;;;;;4974164;28;20204;-50
2022/03/07 13:26:41;;;;;;;2.50;2.30;;;;;;;;;;4972879;28;20639;-49
2022/03/07 13:29:09;;;;;;;2.85;2.55;;;;;;;;;;4974106;28;20293;-49
2022/03/07 13:31:44;;;;;;;2.95;2.75;;;;;;;;;;4974673;28;20243;-50
2022/03/07 13:34:11;;;;;;;2.72;2.53;;;;;;;;;;4974119;28;20560;-49
2022/03/07 13:36:42;;;;;;;2.70;2.50;;;;;;;;;;4974474;28;20231;-50
2022/03/07 13:39:24;;;;;;;2.50;2.30;;;;;;;;;;4974371;28;20270;-50
2022/03/07 13:41:54;;;;;;;2.50;2.30;;;;;;;;;;4973331;28;20720;-49
2022/03/07 13:44:21;;;;;;;2.47;2.28;;;;;;;;;;4970728;28;20234;-50
2022/03/07 13:46:55;;;;;;;2.40;2.20;;;;;;;;;;4974635;28;20230;-49
2022/03/07 13:49:28;;;;;;;2.42;2.22;;;;;;;;;;4976182;28;20231;-50
2022/03/07 13:51:58;;;;;;;2.38;2.17;;;;;;;;;;4974545;28;20218;-50
2022/03/07 13:54:26;;;;;;;2.50;2.30;;;;;;;;;;4973181;28;20428;-50
2022/03/07 13:57:04;;;;;;;2.20;2.10;;;;;;;;;;4973311;28;20274;-50
2022/03/07 13:59:31;;;;;;;2.10;2.00;;;;;;;;;;4974367;28;20203;-50
2022/03/07 14:01:58;;;;;;;2.08;1.98;;;;;;;;;;4973079;28;20208;-50
2022/03/07 14:04:26;;;;;;;1.90;1.80;;;;;;;;;;4973158;28;20215;-50
2022/03/07 14:07:03;;;;;;;2.25;2.10;;;;;;;;;;4973630;28;20319;-50
2022/03/07 14:09:30;;;;;;;2.00;1.90;;;;;;;;;;4973897;28;20615;-50
2022/03/07 14:12:02;;;;;;;1.80;1.70;;;;;;;;;;4973850;28;20481;-50
2022/03/07 14:14:29;;;;;;;1.90;1.80;;;;;;;;;;4973559;28;20266;-50
2022/03/07 14:16:56;;;;;;;1.77;1.67;;;;;;;;;;4974357;28;20208;-50
2022/03/07 14:19:23;;;;;;;1.90;1.80;;;;;;;;;;4972687;28;20336;-50
2022/03/07 14:21:51;;;;;;;2.05;1.92;;;;;;;;;;4974509;28;20211;-50
2022/03/07 14:24:19;;;;;;;1.73;1.63;;;;;;;;;;4973916;28;20203;-50
2022/03/07 14:26:49;;;;;;;1.77;1.65;;;;;;;;;;4972274;28;20215;-50
2022/03/07 14:29:17;;;;;;;1.70;1.60;;;;;;;;;;4973726;28;20227;-50
2022/03/07 14:31:45;;;;;;;1.95;1.75;;;;;;;;;;4973839;28;20208;-50
2022/03/07 14:34:12;;;;;;;1.80;1.70;;;;;;;;;;4973021;28;20492;-50
2022/03/07 14:36:41;;;;;;;1.50;1.40;;;;;;;;;;4972942;28;20469;-50
2022/03/07 14:39:08;;;;;;;1.67;1.58;;;;;;;;;;4972820;28;20196;-50
2022/03/07 14:41:36;;;;;;;1.75;1.65;;;;;;;;;;4971667;28;20207;-50
2022/03/07 14:44:03;;;;;;;1.50;1.38;;;;;;;;;;4973097;28;20584;-50
2022/03/07 14:46:36;;;;;;;1.48;1.38;;;;;;;;;;4973748;28;20243;-50